sensor_id;sensor_type;location;lat;lon;timestamp;P1;durP1;ratioP1;P2;durP2;ratioP2
76138;SDS011;65138;50.946;7.074;2022-12-07T00:01:26;2.72;;;2.08;;
76138;SDS011;65138;50.946;7.074;2022-12-07T00:03:56;3.42;;;2.30;;
76138;SDS011;65138;50.946;7.074;2022-12-07T00:06:28;2.42;;;1.50;;
76138;SDS011;65138;50.946;7.074;2022-12-07T00:08:54;3.30;;;2.25;;
76138;SDS011;65138;50.946;7.074;2022-12-07T00:11:20;3.33;;;2.70;;
76138;SDS011;65138;50.946;7.074;2022-12-07T00:13:47;3.38;;;2.40;;
76138;SDS011;65138;50.946;7.074;2022-12-07T00:16:20;2.72;;;1.90;;
76138;SDS011;65138;50.946;7.074;2022-12-07T00:18:47;3.65;;;2.15;;
76138;SDS011;65138;50.946;7.074;2022-12-07T00:21:18;4.20;;;2.70;;
76138;SDS011;65138;50.946;7.074;2022-12-07T00:23:46;3.08;;;2.22;;
76138;SDS011;65138;50.946;7.074;2022-12-07T00:26:15;2.55;;;2.35;;
76138;SDS011;65138;50.946;7.074;2022-12-07T00:28:49;4.22;;;2.70;;
76138;SDS011;65138;50.946;7.074;2022-12-07T00:31:19;4.32;;;3.03;;
76138;SDS011;65138;50.946;7.074;2022-12-07T00:33:46;3.28;;;2.70;;
76138;SDS011;65138;50.946;7.074;2022-12-07T00:36:14;2.42;;;2.22;;
76138;SDS011;65138;50.946;7.074;2022-12-07T00:38:42;2.63;;;2.42;;
76138;SDS011;65138;50.946;7.074;2022-12-07T00:41:11;3.95;;;2.38;;
76138;SDS011;65138;50.946;7.074;2022-12-07T00:43:39;2.30;;;1.45;;
76138;SDS011;65138;50.946;7.074;2022-12-07T00:46:06;3.63;;;2.53;;
76138;SDS011;65138;50.946;7.074;2022-12-07T00:48:32;2.83;;;2.35;;
76138;SDS011;65138;50.946;7.074;2022-12-07T00:50:58;3.25;;;2.45;;
76138;SDS011;65138;50.946;7.074;2022-12-07T00:53:24;4.38;;;2.67;;
76138;SDS011;65138;50.946;7.074;2022-12-07T00:55:50;2.53;;;2.30;;
76138;SDS011;65138;50.946;7.074;2022-12-07T00:58:17;3.40;;;1.90;;
76138;SDS011;65138;50.946;7.074;2022-12-07T01:00:43;2.53;;;2.22;;
76138;SDS011;65138;50.946;7.074;2022-12-07T01:03:09;2.53;;;2.17;;
76138;SDS011;65138;50.946;7.074;2022-12-07T01:05:37;2.20;;;1.33;;
76138;SDS011;65138;50.946;7.074;2022-12-07T01:08:03;3.63;;;2.35;;
76138;SDS011;65138;50.946;7.074;2022-12-07T01:10:30;3.28;;;2.20;;
76138;SDS011;65138;50.946;7.074;2022-12-07T01:12:56;4.40;;;2.40;;
76138;SDS011;65138;50.946;7.074;2022-12-07T01:15:22;3.25;;;2.38;;
76138;SDS011;65138;50.946;7.074;2022-12-07T01:17:48;2.60;;;2.40;;
76138;SDS011;65138;50.946;7.074;2022-12-07T01:20:15;2.30;;;1.50;;
76138;SDS011;65138;50.946;7.074;2022-12-07T01:22:41;2.30;;;2.10;;
76138;SDS011;65138;50.946;7.074;2022-12-07T01:25:08;2.70;;;2.10;;
76138;SDS011;65138;50.946;7.074;2022-12-07T01:27:36;2.85;;;1.95;;
76138;SDS011;65138;50.946;7.074;2022-12-07T01:30:03;2.40;;;1.83;;
76138;SDS011;65138;50.946;7.074;2022-12-07T01:32:31;3.47;;;2.13;;
76138;SDS011;65138;50.946;7.074;2022-12-07T01:34:57;2.83;;;2.42;;
76138;SDS011;65138;50.946;7.074;2022-12-07T01:37:24;2.40;;;1.98;;
76138;SDS011;65138;50.946;7.074;2022-12-07T01:39:50;3.28;;;1.58;;
76138;SDS011;65138;50.946;7.074;2022-12-07T01:42:16;3.30;;;2.25;;
76138;SDS011;65138;50.946;7.074;2022-12-07T01:47:46;3.42;;;1.92;;
76138;SDS011;65138;50.946;7.074;2022-12-07T01:50:16;2.40;;;2.05;;
76138;SDS011;65138;50.946;7.074;2022-12-07T01:52:43;2.50;;;2.15;;
76138;SDS011;65138;50.946;7.074;2022-12-07T01:55:12;4.25;;;2.20;;
76138;SDS011;65138;50.946;7.074;2022-12-07T01:57:40;3.90;;;2.47;;
76138;SDS011;65138;50.946;7.074;2022-12-07T02:00:08;3.20;;;1.85;;
76138;SDS011;65138;50.946;7.074;2022-12-07T02:02:41;2.70;;;1.15;;
76138;SDS011;65138;50.946;7.074;2022-12-07T02:05:17;3.28;;;2.58;;
76138;SDS011;65138;50.946;7.074;2022-12-07T02:07:43;2.50;;;1.92;;
76138;SDS011;65138;50.946;7.074;2022-12-07T02:10:22;2.80;;;2.47;;
76138;SDS011;65138;50.946;7.074;2022-12-07T02:12:55;3.05;;;2.20;;
76138;SDS011;65138;50.946;7.074;2022-12-07T02:15:34;4.90;;;2.50;;
76138;SDS011;65138;50.946;7.074;2022-12-07T02:21:05;2.80;;;1.40;;
76138;SDS011;65138;50.946;7.074;2022-12-07T02:23:40;2.35;;;2.15;;
76138;SDS011;65138;50.946;7.074;2022-12-07T02:26:23;2.25;;;1.33;;
76138;SDS011;65138;50.946;7.074;2022-12-07T02:29:05;3.83;;;1.98;;
76138;SDS011;65138;50.946;7.074;2022-12-07T02:31:36;2.72;;;2.10;;
76138;SDS011;65138;50.946;7.074;2022-12-07T02:34:09;2.85;;;2.28;;
76138;SDS011;65138;50.946;7.074;2022-12-07T02:36:46;2.25;;;1.73;;
76138;SDS011;65138;50.946;7.074;2022-12-07T02:39:20;2.55;;;2.05;;
76138;SDS011;65138;50.946;7.074;2022-12-07T02:42:13;2.47;;;2.15;;
76138;SDS011;65138;50.946;7.074;2022-12-07T02:44:46;2.65;;;2.20;;
76138;SDS011;65138;50.946;7.074;2022-12-07T02:47:12;4.15;;;2.70;;
76138;SDS011;65138;50.946;7.074;2022-12-07T02:49:42;2.60;;;1.88;;
76138;SDS011;65138;50.946;7.074;2022-12-07T02:52:08;2.88;;;2.33;;
76138;SDS011;65138;50.946;7.074;2022-12-07T02:54:33;2.53;;;1.50;;
76138;SDS011;65138;50.946;7.074;2022-12-07T02:57:14;3.35;;;1.85;;
76138;SDS011;65138;50.946;7.074;2022-12-07T03:02:46;3.15;;;2.35;;
76138;SDS011;65138;50.946;7.074;2022-12-07T03:11:37;3.05;;;1.60;;
76138;SDS011;65138;50.946;7.074;2022-12-07T03:19:49;2.88;;;1.42;;
76138;SDS011;65138;50.946;7.074;2022-12-07T03:22:18;4.43;;;2.20;;
76138;SDS011;65138;50.946;7.074;2022-12-07T03:24:47;4.68;;;2.47;;
76138;SDS011;65138;50.946;7.074;2022-12-07T03:27:21;2.10;;;1.83;;
76138;SDS011;65138;50.946;7.074;2022-12-07T03:30:12;2.80;;;2.08;;
76138;SDS011;65138;50.946;7.074;2022-12-07T03:32:44;3.45;;;2.47;;
76138;SDS011;65138;50.946;7.074;2022-12-07T03:35:23;3.33;;;2.13;;
76138;SDS011;65138;50.946;7.074;2022-12-07T03:38:05;2.90;;;2.13;;
76138;SDS011;65138;50.946;7.074;2022-12-07T03:43:23;2.50;;;2.08;;
76138;SDS011;65138;50.946;7.074;2022-12-07T03:48:41;3.00;;;2.40;;
76138;SDS011;65138;50.946;7.074;2022-12-07T03:51:34;3.58;;;1.60;;
76138;SDS011;65138;50.946;7.074;2022-12-07T03:54:24;2.97;;;1.52;;
76138;SDS011;65138;50.946;7.074;2022-12-07T03:56:57;2.65;;;2.30;;
76138;SDS011;65138;50.946;7.074;2022-12-07T03:59:24;3.78;;;2.60;;
76138;SDS011;65138;50.946;7.074;2022-12-07T04:01:53;3.40;;;1.52;;
76138;SDS011;65138;50.946;7.074;2022-12-07T04:04:21;3.15;;;1.65;;
76138;SDS011;65138;50.946;7.074;2022-12-07T04:06:47;3.90;;;2.13;;
76138;SDS011;65138;50.946;7.074;2022-12-07T04:09:13;2.22;;;2.00;;
76138;SDS011;65138;50.946;7.074;2022-12-07T04:11:39;2.97;;;1.67;;
76138;SDS011;65138;50.946;7.074;2022-12-07T04:14:05;3.15;;;2.35;;
76138;SDS011;65138;50.946;7.074;2022-12-07T04:16:50;2.95;;;2.20;;
76138;SDS011;65138;50.946;7.074;2022-12-07T04:19:18;1.98;;;1.75;;
76138;SDS011;65138;50.946;7.074;2022-12-07T04:21:46;3.13;;;2.30;;
76138;SDS011;65138;50.946;7.074;2022-12-07T04:24:12;2.70;;;2.10;;
76138;SDS011;65138;50.946;7.074;2022-12-07T04:26:39;2.85;;;2.13;;
76138;SDS011;65138;50.946;7.074;2022-12-07T04:29:06;2.53;;;2.05;;
76138;SDS011;65138;50.946;7.074;2022-12-07T04:31:32;3.00;;;2.47;;
76138;SDS011;65138;50.946;7.074;2022-12-07T04:33:57;3.28;;;2.25;;
76138;SDS011;65138;50.946;7.074;2022-12-07T04:36:23;3.15;;;1.92;;
76138;SDS011;65138;50.946;7.074;2022-12-07T04:38:49;3.30;;;2.28;;
76138;SDS011;65138;50.946;7.074;2022-12-07T04:41:14;2.25;;;1.75;;
76138;SDS011;65138;50.946;7.074;2022-12-07T04:43:40;4.32;;;2.20;;
76138;SDS011;65138;50.946;7.074;2022-12-07T04:46:06;3.05;;;2.15;;
76138;SDS011;65138;50.946;7.074;2022-12-07T04:48:32;2.72;;;2.38;;
76138;SDS011;65138;50.946;7.074;2022-12-07T04:50:57;3.30;;;2.47;;
76138;SDS011;65138;50.946;7.074;2022-12-07T04:53:23;3.75;;;2.50;;
76138;SDS011;65138;50.946;7.074;2022-12-07T04:55:49;3.13;;;1.60;;
76138;SDS011;65138;50.946;7.074;2022-12-07T04:58:14;3.35;;;2.10;;
76138;SDS011;65138;50.946;7.074;2022-12-07T05:00:40;3.33;;;2.03;;
76138;SDS011;65138;50.946;7.074;2022-12-07T05:03:06;3.20;;;2.17;;
76138;SDS011;65138;50.946;7.074;2022-12-07T05:05:32;3.45;;;1.88;;
76138;SDS011;65138;50.946;7.074;2022-12-07T05:07:58;2.92;;;2.28;;
76138;SDS011;65138;50.946;7.074;2022-12-07T05:10:23;4.43;;;2.67;;
76138;SDS011;65138;50.946;7.074;2022-12-07T05:12:49;3.13;;;2.42;;
76138;SDS011;65138;50.946;7.074;2022-12-07T05:15:15;3.17;;;2.33;;
76138;SDS011;65138;50.946;7.074;2022-12-07T05:17:41;4.00;;;2.78;;
76138;SDS011;65138;50.946;7.074;2022-12-07T05:20:07;4.07;;;2.70;;
76138;SDS011;65138;50.946;7.074;2022-12-07T05:22:33;3.72;;;2.45;;
76138;SDS011;65138;50.946;7.074;2022-12-07T05:24:59;3.60;;;2.13;;
76138;SDS011;65138;50.946;7.074;2022-12-07T05:27:25;3.15;;;2.42;;
76138;SDS011;65138;50.946;7.074;2022-12-07T05:29:51;3.22;;;2.33;;
76138;SDS011;65138;50.946;7.074;2022-12-07T05:32:17;2.75;;;1.80;;
76138;SDS011;65138;50.946;7.074;2022-12-07T05:34:43;3.05;;;2.10;;
76138;SDS011;65138;50.946;7.074;2022-12-07T05:37:09;3.20;;;2.15;;
76138;SDS011;65138;50.946;7.074;2022-12-07T05:39:35;2.63;;;1.85;;
76138;SDS011;65138;50.946;7.074;2022-12-07T05:42:00;2.53;;;2.15;;
76138;SDS011;65138;50.946;7.074;2022-12-07T05:44:42;2.95;;;1.55;;
76138;SDS011;65138;50.946;7.074;2022-12-07T05:47:10;2.97;;;2.17;;
76138;SDS011;65138;50.946;7.074;2022-12-07T05:49:37;4.43;;;2.92;;
76138;SDS011;65138;50.946;7.074;2022-12-07T05:52:03;7.35;;;3.80;;
76138;SDS011;65138;50.946;7.074;2022-12-07T05:54:29;5.43;;;3.03;;
76138;SDS011;65138;50.946;7.074;2022-12-07T05:56:55;5.38;;;2.85;;
76138;SDS011;65138;50.946;7.074;2022-12-07T05:59:20;6.15;;;4.03;;
76138;SDS011;65138;50.946;7.074;2022-12-07T06:01:57;4.15;;;2.83;;
76138;SDS011;65138;50.946;7.074;2022-12-07T06:04:25;3.95;;;3.13;;
76138;SDS011;65138;50.946;7.074;2022-12-07T06:06:53;10.15;;;2.75;;
76138;SDS011;65138;50.946;7.074;2022-12-07T06:09:19;4.60;;;2.72;;
76138;SDS011;65138;50.946;7.074;2022-12-07T06:11:46;4.53;;;3.05;;
76138;SDS011;65138;50.946;7.074;2022-12-07T06:14:31;3.47;;;2.55;;
76138;SDS011;65138;50.946;7.074;2022-12-07T06:16:57;4.40;;;2.67;;
76138;SDS011;65138;50.946;7.074;2022-12-07T06:19:23;4.13;;;2.38;;
76138;SDS011;65138;50.946;7.074;2022-12-07T06:21:49;2.88;;;2.38;;
76138;SDS011;65138;50.946;7.074;2022-12-07T06:24:15;3.17;;;2.13;;
76138;SDS011;65138;50.946;7.074;2022-12-07T06:26:42;3.67;;;2.60;;
76138;SDS011;65138;50.946;7.074;2022-12-07T06:29:08;3.78;;;2.50;;
76138;SDS011;65138;50.946;7.074;2022-12-07T06:31:35;2.70;;;2.22;;
76138;SDS011;65138;50.946;7.074;2022-12-07T06:34:02;3.20;;;2.47;;
76138;SDS011;65138;50.946;7.074;2022-12-07T06:36:30;3.05;;;2.65;;
76138;SDS011;65138;50.946;7.074;2022-12-07T06:38:58;3.90;;;2.50;;
76138;SDS011;65138;50.946;7.074;2022-12-07T06:41:24;2.78;;;2.03;;
76138;SDS011;65138;50.946;7.074;2022-12-07T06:43:50;3.78;;;2.65;;
76138;SDS011;65138;50.946;7.074;2022-12-07T06:46:17;2.95;;;2.15;;
76138;SDS011;65138;50.946;7.074;2022-12-07T06:48:43;2.60;;;2.03;;
76138;SDS011;65138;50.946;7.074;2022-12-07T06:51:09;4.05;;;2.13;;
76138;SDS011;65138;50.946;7.074;2022-12-07T06:53:35;1.90;;;1.35;;
76138;SDS011;65138;50.946;7.074;2022-12-07T06:56:01;3.42;;;2.20;;
76138;SDS011;65138;50.946;7.074;2022-12-07T06:58:29;5.32;;;2.83;;
76138;SDS011;65138;50.946;7.074;2022-12-07T07:00:55;5.50;;;3.22;;
76138;SDS011;65138;50.946;7.074;2022-12-07T07:03:22;7.03;;;4.07;;
76138;SDS011;65138;50.946;7.074;2022-12-07T07:05:51;4.13;;;3.22;;
76138;SDS011;65138;50.946;7.074;2022-12-07T07:08:17;5.80;;;3.90;;
76138;SDS011;65138;50.946;7.074;2022-12-07T07:10:42;6.90;;;3.50;;
76138;SDS011;65138;50.946;7.074;2022-12-07T07:13:08;10.20;;;5.13;;
76138;SDS011;65138;50.946;7.074;2022-12-07T07:15:34;9.55;;;5.60;;
76138;SDS011;65138;50.946;7.074;2022-12-07T07:18:02;9.18;;;5.43;;
76138;SDS011;65138;50.946;7.074;2022-12-07T07:20:29;8.52;;;4.82;;
76138;SDS011;65138;50.946;7.074;2022-12-07T07:22:55;8.10;;;4.60;;
76138;SDS011;65138;50.946;7.074;2022-12-07T07:25:21;9.05;;;4.35;;
76138;SDS011;65138;50.946;7.074;2022-12-07T07:27:47;8.10;;;4.35;;
76138;SDS011;65138;50.946;7.074;2022-12-07T07:30:13;6.97;;;3.72;;
76138;SDS011;65138;50.946;7.074;2022-12-07T07:32:39;9.85;;;3.45;;
76138;SDS011;65138;50.946;7.074;2022-12-07T07:35:05;11.13;;;3.78;;
76138;SDS011;65138;50.946;7.074;2022-12-07T07:37:31;7.28;;;3.58;;
76138;SDS011;65138;50.946;7.074;2022-12-07T07:39:57;7.80;;;3.53;;
76138;SDS011;65138;50.946;7.074;2022-12-07T07:42:22;9.90;;;3.85;;
76138;SDS011;65138;50.946;7.074;2022-12-07T07:44:48;6.10;;;3.70;;
76138;SDS011;65138;50.946;7.074;2022-12-07T07:47:16;8.85;;;3.58;;
76138;SDS011;65138;50.946;7.074;2022-12-07T07:49:43;6.60;;;3.35;;
76138;SDS011;65138;50.946;7.074;2022-12-07T07:52:09;5.20;;;3.08;;
76138;SDS011;65138;50.946;7.074;2022-12-07T07:54:36;5.55;;;3.42;;
76138;SDS011;65138;50.946;7.074;2022-12-07T07:57:02;4.88;;;2.88;;
76138;SDS011;65138;50.946;7.074;2022-12-07T07:59:28;6.90;;;3.08;;
76138;SDS011;65138;50.946;7.074;2022-12-07T08:01:54;8.52;;;3.30;;
76138;SDS011;65138;50.946;7.074;2022-12-07T08:04:19;3.63;;;2.35;;
76138;SDS011;65138;50.946;7.074;2022-12-07T08:06:47;4.00;;;2.88;;
76138;SDS011;65138;50.946;7.074;2022-12-07T08:09:13;7.60;;;3.08;;
76138;SDS011;65138;50.946;7.074;2022-12-07T08:11:39;6.38;;;3.25;;
76138;SDS011;65138;50.946;7.074;2022-12-07T08:14:05;7.18;;;3.35;;
76138;SDS011;65138;50.946;7.074;2022-12-07T08:16:33;3.67;;;3.03;;
76138;SDS011;65138;50.946;7.074;2022-12-07T08:19:00;5.55;;;3.30;;
76138;SDS011;65138;50.946;7.074;2022-12-07T08:21:26;6.53;;;3.42;;
76138;SDS011;65138;50.946;7.074;2022-12-07T08:23:52;8.70;;;4.32;;
76138;SDS011;65138;50.946;7.074;2022-12-07T08:26:18;8.35;;;3.72;;
76138;SDS011;65138;50.946;7.074;2022-12-07T08:28:43;6.30;;;3.22;;
76138;SDS011;65138;50.946;7.074;2022-12-07T08:31:11;9.00;;;3.40;;
76138;SDS011;65138;50.946;7.074;2022-12-07T08:33:39;5.15;;;3.00;;
76138;SDS011;65138;50.946;7.074;2022-12-07T08:36:06;4.82;;;2.75;;
76138;SDS011;65138;50.946;7.074;2022-12-07T08:38:34;4.57;;;3.17;;
76138;SDS011;65138;50.946;7.074;2022-12-07T08:41:00;6.30;;;2.70;;
76138;SDS011;65138;50.946;7.074;2022-12-07T08:43:27;4.68;;;2.90;;
76138;SDS011;65138;50.946;7.074;2022-12-07T08:46:39;3.92;;;2.75;;
76138;SDS011;65138;50.946;7.074;2022-12-07T08:48:49;6.75;;;2.92;;
76138;SDS011;65138;50.946;7.074;2022-12-07T08:51:21;3.40;;;2.55;;
76138;SDS011;65138;50.946;7.074;2022-12-07T08:53:47;4.28;;;2.60;;
76138;SDS011;65138;50.946;7.074;2022-12-07T08:56:15;5.68;;;2.40;;
76138;SDS011;65138;50.946;7.074;2022-12-07T08:58:40;6.28;;;3.17;;
76138;SDS011;65138;50.946;7.074;2022-12-07T09:01:07;3.10;;;2.42;;
76138;SDS011;65138;50.946;7.074;2022-12-07T09:03:32;3.55;;;2.20;;
76138;SDS011;65138;50.946;7.074;2022-12-07T09:05:58;2.97;;;2.22;;
76138;SDS011;65138;50.946;7.074;2022-12-07T09:08:26;5.40;;;2.67;;
76138;SDS011;65138;50.946;7.074;2022-12-07T09:10:57;4.10;;;2.35;;
76138;SDS011;65138;50.946;7.074;2022-12-07T09:13:22;3.33;;;2.35;;
76138;SDS011;65138;50.946;7.074;2022-12-07T09:15:48;3.95;;;2.03;;
76138;SDS011;65138;50.946;7.074;2022-12-07T09:18:13;3.67;;;2.70;;
76138;SDS011;65138;50.946;7.074;2022-12-07T09:20:40;4.55;;;2.60;;
76138;SDS011;65138;50.946;7.074;2022-12-07T09:23:06;4.95;;;1.85;;
76138;SDS011;65138;50.946;7.074;2022-12-07T09:25:32;4.53;;;2.83;;
76138;SDS011;65138;50.946;7.074;2022-12-07T09:27:58;4.88;;;3.22;;
76138;SDS011;65138;50.946;7.074;2022-12-07T09:30:24;6.18;;;2.33;;
76138;SDS011;65138;50.946;7.074;2022-12-07T09:32:57;3.53;;;2.63;;
76138;SDS011;65138;50.946;7.074;2022-12-07T09:35:24;3.92;;;2.53;;
76138;SDS011;65138;50.946;7.074;2022-12-07T09:37:50;3.72;;;2.53;;
76138;SDS011;65138;50.946;7.074;2022-12-07T09:40:16;5.45;;;2.22;;
76138;SDS011;65138;50.946;7.074;2022-12-07T09:42:46;4.75;;;2.33;;
76138;SDS011;65138;50.946;7.074;2022-12-07T09:45:17;3.25;;;2.47;;
76138;SDS011;65138;50.946;7.074;2022-12-07T09:47:58;4.45;;;2.33;;
76138;SDS011;65138;50.946;7.074;2022-12-07T09:50:25;4.85;;;2.13;;
76138;SDS011;65138;50.946;7.074;2022-12-07T09:52:53;3.20;;;2.00;;
76138;SDS011;65138;50.946;7.074;2022-12-07T09:55:27;3.80;;;1.55;;
76138;SDS011;65138;50.946;7.074;2022-12-07T09:57:54;3.42;;;2.17;;
76138;SDS011;65138;50.946;7.074;2022-12-07T10:00:21;4.05;;;2.08;;
76138;SDS011;65138;50.946;7.074;2022-12-07T10:02:58;2.88;;;2.28;;
76138;SDS011;65138;50.946;7.074;2022-12-07T10:05:29;2.60;;;2.08;;
76138;SDS011;65138;50.946;7.074;2022-12-07T10:07:59;2.53;;;1.70;;
76138;SDS011;65138;50.946;7.074;2022-12-07T10:10:26;3.90;;;2.38;;
76138;SDS011;65138;50.946;7.074;2022-12-07T10:13:00;2.80;;;1.95;;
76138;SDS011;65138;50.946;7.074;2022-12-07T10:18:25;3.25;;;1.83;;
76138;SDS011;65138;50.946;7.074;2022-12-07T10:21:13;2.50;;;2.17;;
76138;SDS011;65138;50.946;7.074;2022-12-07T10:23:42;3.83;;;2.30;;
76138;SDS011;65138;50.946;7.074;2022-12-07T10:29:01;3.10;;;1.73;;
76138;SDS011;65138;50.946;7.074;2022-12-07T10:31:45;3.28;;;1.80;;
76138;SDS011;65138;50.946;7.074;2022-12-07T10:34:29;3.50;;;2.03;;
76138;SDS011;65138;50.946;7.074;2022-12-07T10:39:41;2.25;;;1.92;;
76138;SDS011;65138;50.946;7.074;2022-12-07T10:42:09;3.08;;;1.83;;
76138;SDS011;65138;50.946;7.074;2022-12-07T10:44:48;3.30;;;1.70;;
76138;SDS011;65138;50.946;7.074;2022-12-07T10:50:29;2.60;;;1.63;;
76138;SDS011;65138;50.946;7.074;2022-12-07T11:02:07;8.48;;;3.97;;
76138;SDS011;65138;50.946;7.074;2022-12-07T11:07:51;9.63;;;3.60;;
76138;SDS011;65138;50.946;7.074;2022-12-07T11:10:50;8.70;;;3.08;;
76138;SDS011;65138;50.946;7.074;2022-12-07T11:15:55;6.65;;;2.85;;
76138;SDS011;65138;50.946;7.074;2022-12-07T11:21:39;7.60;;;3.10;;
76138;SDS011;65138;50.946;7.074;2022-12-07T11:24:19;8.55;;;3.38;;
76138;SDS011;65138;50.946;7.074;2022-12-07T11:29:26;12.57;;;6.13;;
76138;SDS011;65138;50.946;7.074;2022-12-07T11:32:11;13.68;;;5.13;;
76138;SDS011;65138;50.946;7.074;2022-12-07T11:38:16;14.60;;;3.50;;
76138;SDS011;65138;50.946;7.074;2022-12-07T11:40:46;11.77;;;3.92;;
76138;SDS011;65138;50.946;7.074;2022-12-07T11:48:25;8.52;;;2.75;;
76138;SDS011;65138;50.946;7.074;2022-12-07T11:50:59;7.82;;;3.35;;
76138;SDS011;65138;50.946;7.074;2022-12-07T11:55:54;5.97;;;2.53;;
76138;SDS011;65138;50.946;7.074;2022-12-07T12:03:40;6.57;;;2.45;;
76138;SDS011;65138;50.946;7.074;2022-12-07T12:06:15;6.95;;;2.60;;
76138;SDS011;65138;50.946;7.074;2022-12-07T12:08:50;5.55;;;2.25;;
76138;SDS011;65138;50.946;7.074;2022-12-07T12:14:44;9.10;;;2.97;;
76138;SDS011;65138;50.946;7.074;2022-12-07T12:20:29;3.85;;;1.90;;
76138;SDS011;65138;50.946;7.074;2022-12-07T12:23:11;6.00;;;1.98;;
76138;SDS011;65138;50.946;7.074;2022-12-07T12:25:42;3.03;;;1.77;;
76138;SDS011;65138;50.946;7.074;2022-12-07T12:28:25;5.05;;;2.33;;
76138;SDS011;65138;50.946;7.074;2022-12-07T12:33:38;3.75;;;2.25;;
76138;SDS011;65138;50.946;7.074;2022-12-07T12:38:51;6.47;;;2.13;;
76138;SDS011;65138;50.946;7.074;2022-12-07T12:47:00;5.65;;;2.20;;
76138;SDS011;65138;50.946;7.074;2022-12-07T12:49:42;6.45;;;1.55;;
76138;SDS011;65138;50.946;7.074;2022-12-07T12:57:36;8.27;;;2.08;;
76138;SDS011;65138;50.946;7.074;2022-12-07T13:00:14;2.42;;;0.93;;
76138;SDS011;65138;50.946;7.074;2022-12-07T13:20:40;3.45;;;1.30;;
76138;SDS011;65138;50.946;7.074;2022-12-07T13:23:13;5.50;;;2.03;;
76138;SDS011;65138;50.946;7.074;2022-12-07T13:29:17;3.97;;;1.25;;
76138;SDS011;65138;50.946;7.074;2022-12-07T13:31:55;5.63;;;2.78;;
76138;SDS011;65138;50.946;7.074;2022-12-07T13:36:58;8.93;;;2.10;;
76138;SDS011;65138;50.946;7.074;2022-12-07T13:39:27;5.85;;;2.13;;
76138;SDS011;65138;50.946;7.074;2022-12-07T13:41:56;7.10;;;2.45;;
76138;SDS011;65138;50.946;7.074;2022-12-07T13:44:25;8.20;;;4.25;;
76138;SDS011;65138;50.946;7.074;2022-12-07T13:49:52;10.00;;;4.18;;
76138;SDS011;65138;50.946;7.074;2022-12-07T13:52:23;9.00;;;4.18;;
76138;SDS011;65138;50.946;7.074;2022-12-07T13:57:29;8.25;;;3.72;;
76138;SDS011;65138;50.946;7.074;2022-12-07T13:59:57;6.28;;;3.25;;
76138;SDS011;65138;50.946;7.074;2022-12-07T14:02:27;6.80;;;3.13;;
76138;SDS011;65138;50.946;7.074;2022-12-07T14:05:12;5.85;;;3.38;;
76138;SDS011;65138;50.946;7.074;2022-12-07T14:10:24;5.72;;;3.25;;
76138;SDS011;65138;50.946;7.074;2022-12-07T14:12:58;9.10;;;4.97;;
76138;SDS011;65138;50.946;7.074;2022-12-07T14:15:29;7.22;;;3.90;;
76138;SDS011;65138;50.946;7.074;2022-12-07T14:17:58;6.22;;;3.75;;
76138;SDS011;65138;50.946;7.074;2022-12-07T14:20:38;6.70;;;3.75;;
76138;SDS011;65138;50.946;7.074;2022-12-07T14:23:06;6.88;;;3.63;;
76138;SDS011;65138;50.946;7.074;2022-12-07T14:25:51;5.88;;;3.35;;
76138;SDS011;65138;50.946;7.074;2022-12-07T14:28:28;5.22;;;2.55;;
76138;SDS011;65138;50.946;7.074;2022-12-07T14:30:59;8.98;;;3.40;;
76138;SDS011;65138;50.946;7.074;2022-12-07T14:33:25;8.55;;;4.40;;
76138;SDS011;65138;50.946;7.074;2022-12-07T14:35:58;5.57;;;3.00;;
76138;SDS011;65138;50.946;7.074;2022-12-07T14:38:24;5.32;;;3.22;;
76138;SDS011;65138;50.946;7.074;2022-12-07T14:40:51;6.18;;;3.20;;
76138;SDS011;65138;50.946;7.074;2022-12-07T14:43:18;5.95;;;3.60;;
76138;SDS011;65138;50.946;7.074;2022-12-07T14:45:45;5.60;;;3.10;;
76138;SDS011;65138;50.946;7.074;2022-12-07T14:48:12;7.18;;;3.35;;
76138;SDS011;65138;50.946;7.074;2022-12-07T14:50:44;8.57;;;3.88;;
76138;SDS011;65138;50.946;7.074;2022-12-07T14:53:17;7.35;;;3.50;;
76138;SDS011;65138;50.946;7.074;2022-12-07T14:55:53;6.20;;;2.75;;
76138;SDS011;65138;50.946;7.074;2022-12-07T14:58:19;9.25;;;4.28;;
76138;SDS011;65138;50.946;7.074;2022-12-07T15:00:45;17.25;;;8.90;;
76138;SDS011;65138;50.946;7.074;2022-12-07T15:03:12;11.82;;;7.20;;
76138;SDS011;65138;50.946;7.074;2022-12-07T15:05:39;12.07;;;7.13;;
76138;SDS011;65138;50.946;7.074;2022-12-07T15:08:05;9.82;;;5.22;;
76138;SDS011;65138;50.946;7.074;2022-12-07T15:10:32;8.63;;;4.50;;
76138;SDS011;65138;50.946;7.074;2022-12-07T15:12:59;10.18;;;4.78;;
76138;SDS011;65138;50.946;7.074;2022-12-07T15:15:45;6.05;;;3.78;;
76138;SDS011;65138;50.946;7.074;2022-12-07T15:18:16;8.32;;;3.50;;
76138;SDS011;65138;50.946;7.074;2022-12-07T15:20:43;7.97;;;3.58;;
76138;SDS011;65138;50.946;7.074;2022-12-07T15:23:09;8.57;;;3.65;;
76138;SDS011;65138;50.946;7.074;2022-12-07T15:25:35;11.45;;;5.03;;
76138;SDS011;65138;50.946;7.074;2022-12-07T15:28:01;7.80;;;4.60;;
76138;SDS011;65138;50.946;7.074;2022-12-07T15:30:27;7.15;;;3.72;;
76138;SDS011;65138;50.946;7.074;2022-12-07T15:32:53;8.52;;;4.45;;
76138;SDS011;65138;50.946;7.074;2022-12-07T15:35:18;6.35;;;3.83;;
76138;SDS011;65138;50.946;7.074;2022-12-07T15:37:44;6.40;;;3.80;;
76138;SDS011;65138;50.946;7.074;2022-12-07T15:40:10;5.90;;;3.38;;
76138;SDS011;65138;50.946;7.074;2022-12-07T15:42:36;5.13;;;3.03;;
76138;SDS011;65138;50.946;7.074;2022-12-07T15:45:03;6.28;;;3.40;;
76138;SDS011;65138;50.946;7.074;2022-12-07T15:47:30;6.10;;;3.25;;
76138;SDS011;65138;50.946;7.074;2022-12-07T15:49:57;5.18;;;3.20;;
76138;SDS011;65138;50.946;7.074;2022-12-07T15:52:23;3.88;;;3.13;;
76138;SDS011;65138;50.946;7.074;2022-12-07T15:54:49;5.40;;;2.92;;
76138;SDS011;65138;50.946;7.074;2022-12-07T15:57:17;4.60;;;2.70;;
76138;SDS011;65138;50.946;7.074;2022-12-07T15:59:43;3.22;;;2.67;;
76138;SDS011;65138;50.946;7.074;2022-12-07T16:02:09;3.97;;;2.80;;
76138;SDS011;65138;50.946;7.074;2022-12-07T16:04:35;5.38;;;1.98;;
76138;SDS011;65138;50.946;7.074;2022-12-07T16:07:01;3.20;;;2.63;;
76138;SDS011;65138;50.946;7.074;2022-12-07T16:09:27;3.90;;;2.30;;
76138;SDS011;65138;50.946;7.074;2022-12-07T16:11:53;3.88;;;1.80;;
76138;SDS011;65138;50.946;7.074;2022-12-07T16:14:19;4.22;;;2.47;;
76138;SDS011;65138;50.946;7.074;2022-12-07T16:16:46;4.20;;;2.47;;
76138;SDS011;65138;50.946;7.074;2022-12-07T16:19:12;3.70;;;2.25;;
76138;SDS011;65138;50.946;7.074;2022-12-07T16:21:38;3.50;;;2.40;;
76138;SDS011;65138;50.946;7.074;2022-12-07T16:24:04;3.60;;;2.10;;
76138;SDS011;65138;50.946;7.074;2022-12-07T16:26:30;5.03;;;2.88;;
76138;SDS011;65138;50.946;7.074;2022-12-07T16:28:56;7.22;;;3.40;;
76138;SDS011;65138;50.946;7.074;2022-12-07T16:31:23;4.07;;;2.70;;
76138;SDS011;65138;50.946;7.074;2022-12-07T16:33:50;5.07;;;3.28;;
76138;SDS011;65138;50.946;7.074;2022-12-07T16:36:19;3.30;;;1.92;;
76138;SDS011;65138;50.946;7.074;2022-12-07T16:38:47;4.85;;;2.72;;
76138;SDS011;65138;50.946;7.074;2022-12-07T16:41:13;4.78;;;2.33;;
76138;SDS011;65138;50.946;7.074;2022-12-07T16:43:39;4.15;;;2.67;;
76138;SDS011;65138;50.946;7.074;2022-12-07T16:46:05;3.83;;;2.72;;
76138;SDS011;65138;50.946;7.074;2022-12-07T16:48:31;3.58;;;1.98;;
76138;SDS011;65138;50.946;7.074;2022-12-07T16:51:02;3.28;;;1.75;;
76138;SDS011;65138;50.946;7.074;2022-12-07T16:53:29;3.97;;;2.40;;
76138;SDS011;65138;50.946;7.074;2022-12-07T16:55:55;2.90;;;2.25;;
76138;SDS011;65138;50.946;7.074;2022-12-07T16:58:20;2.45;;;1.95;;
76138;SDS011;65138;50.946;7.074;2022-12-07T17:00:49;3.58;;;1.38;;
76138;SDS011;65138;50.946;7.074;2022-12-07T17:03:15;2.95;;;2.25;;
76138;SDS011;65138;50.946;7.074;2022-12-07T17:05:42;2.65;;;2.15;;
76138;SDS011;65138;50.946;7.074;2022-12-07T17:08:09;2.70;;;2.05;;
76138;SDS011;65138;50.946;7.074;2022-12-07T17:10:36;3.60;;;2.20;;